sensor_id;sensor_type;location;lat;lon;timestamp;P1;durP1;ratioP1;P2;durP2;ratioP2
14019;SDS011;7085;51.428;6.796;2023-04-15T03:02:28;7.68;;;5.97;;
14019;SDS011;7085;51.428;6.796;2023-04-15T03:04:59;8.85;;;5.57;;
14019;SDS011;7085;51.428;6.796;2023-04-15T03:07:26;9.13;;;5.75;;
14019;SDS011;7085;51.428;6.796;2023-04-15T03:09:53;11.85;;;6.43;;
14019;SDS011;7085;51.428;6.796;2023-04-15T03:12:20;8.35;;;5.95;;
14019;SDS011;7085;51.428;6.796;2023-04-15T03:14:47;11.40;;;6.03;;
14019;SDS011;7085;51.428;6.796;2023-04-15T03:17:14;12.32;;;6.50;;
14019;SDS011;7085;51.428;6.796;2023-04-15T03:19:43;7.88;;;5.85;;
14019;SDS011;7085;51.428;6.796;2023-04-15T03:22:10;9.88;;;6.40;;
14019;SDS011;7085;51.428;6.796;2023-04-15T03:24:37;10.15;;;6.25;;
14019;SDS011;7085;51.428;6.796;2023-04-15T03:27:04;9.82;;;6.53;;
14019;SDS011;7085;51.428;6.796;2023-04-15T03:29:32;8.73;;;6.40;;
14019;SDS011;7085;51.428;6.796;2023-04-15T03:31:59;7.25;;;6.55;;
14019;SDS011;7085;51.428;6.796;2023-04-15T03:34:26;8.00;;;5.78;;
14019;SDS011;7085;51.428;6.796;2023-04-15T03:36:55;9.05;;;5.90;;
14019;SDS011;7085;51.428;6.796;2023-04-15T03:39:22;16.80;;;6.85;;
14019;SDS011;7085;51.428;6.796;2023-04-15T03:41:49;8.30;;;5.87;;
14019;SDS011;7085;51.428;6.796;2023-04-15T03:44:16;10.73;;;6.75;;
14019;SDS011;7085;51.428;6.796;2023-04-15T03:46:43;9.48;;;6.68;;
14019;SDS011;7085;51.428;6.796;2023-04-15T03:49:10;10.43;;;6.32;;
14019;SDS011;7085;51.428;6.796;2023-04-15T03:51:37;8.95;;;6.35;;
14019;SDS011;7085;51.428;6.796;2023-04-15T03:54:06;9.63;;;6.20;;
14019;SDS011;7085;51.428;6.796;2023-04-15T03:56:33;8.27;;;6.10;;
14019;SDS011;7085;51.428;6.796;2023-04-15T03:59:00;8.90;;;6.55;;
14019;SDS011;7085;51.428;6.796;2023-04-15T04:01:27;10.60;;;6.47;;
14019;SDS011;7085;51.428;6.796;2023-04-15T04:03:54;8.98;;;6.50;;
14019;SDS011;7085;51.428;6.796;2023-04-15T04:06:21;9.65;;;6.32;;
14019;SDS011;7085;51.428;6.796;2023-04-15T04:08:48;7.30;;;5.85;;
14019;SDS011;7085;51.428;6.796;2023-04-15T04:11:16;8.27;;;6.28;;
14019;SDS011;7085;51.428;6.796;2023-04-15T04:13:43;8.70;;;6.90;;
14019;SDS011;7085;51.428;6.796;2023-04-15T04:16:10;8.55;;;6.10;;
14019;SDS011;7085;51.428;6.796;2023-04-15T04:18:37;8.55;;;6.38;;
14019;SDS011;7085;51.428;6.796;2023-04-15T04:21:05;11.40;;;7.07;;
14019;SDS011;7085;51.428;6.796;2023-04-15T04:23:32;10.27;;;6.90;;
14019;SDS011;7085;51.428;6.796;2023-04-15T04:25:59;11.20;;;6.40;;
14019;SDS011;7085;51.428;6.796;2023-04-15T04:28:27;9.23;;;5.78;;
14019;SDS011;7085;51.428;6.796;2023-04-15T04:30:55;12.50;;;5.97;;
14019;SDS011;7085;51.428;6.796;2023-04-15T04:33:22;7.00;;;5.15;;
14019;SDS011;7085;51.428;6.796;2023-04-15T04:35:49;9.38;;;6.40;;
14019;SDS011;7085;51.428;6.796;2023-04-15T04:38:16;8.77;;;5.88;;
14019;SDS011;7085;51.428;6.796;2023-04-15T04:40:43;9.30;;;6.78;;
14019;SDS011;7085;51.428;6.796;2023-04-15T04:43:10;9.38;;;5.57;;
14019;SDS011;7085;51.428;6.796;2023-04-15T04:45:40;8.33;;;6.27;;
14019;SDS011;7085;51.428;6.796;2023-04-15T04:48:07;8.45;;;5.68;;
14019;SDS011;7085;51.428;6.796;2023-04-15T04:50:34;10.85;;;5.70;;
14019;SDS011;7085;51.428;6.796;2023-04-15T04:53:01;8.90;;;5.68;;
14019;SDS011;7085;51.428;6.796;2023-04-15T04:55:28;11.25;;;6.03;;
14019;SDS011;7085;51.428;6.796;2023-04-15T04:57:56;8.43;;;6.50;;
14019;SDS011;7085;51.428;6.796;2023-04-15T05:00:23;8.10;;;5.50;;
14019;SDS011;7085;51.428;6.796;2023-04-15T05:02:51;10.98;;;6.60;;
14019;SDS011;7085;51.428;6.796;2023-04-15T05:05:21;8.77;;;6.78;;
14019;SDS011;7085;51.428;6.796;2023-04-15T05:07:48;7.45;;;5.45;;
14019;SDS011;7085;51.428;6.796;2023-04-15T05:10:15;9.52;;;6.05;;
14019;SDS011;7085;51.428;6.796;2023-04-15T05:12:42;9.75;;;6.55;;
14019;SDS011;7085;51.428;6.796;2023-04-15T05:15:09;6.88;;;5.60;;
14019;SDS011;7085;51.428;6.796;2023-04-15T05:17:37;8.40;;;5.78;;
14019;SDS011;7085;51.428;6.796;2023-04-15T05:20:06;8.30;;;6.18;;
14019;SDS011;7085;51.428;6.796;2023-04-15T05:22:33;9.47;;;6.23;;
14019;SDS011;7085;51.428;6.796;2023-04-15T05:25:00;8.47;;;6.03;;
14019;SDS011;7085;51.428;6.796;2023-04-15T05:27:28;9.82;;;7.00;;
14019;SDS011;7085;51.428;6.796;2023-04-15T05:29:55;9.77;;;6.45;;
14019;SDS011;7085;51.428;6.796;2023-04-15T05:32:22;7.80;;;6.47;;
14019;SDS011;7085;51.428;6.796;2023-04-15T05:34:49;7.60;;;6.35;;
14019;SDS011;7085;51.428;6.796;2023-04-15T05:37:17;12.27;;;6.57;;
14019;SDS011;7085;51.428;6.796;2023-04-15T05:39:46;8.05;;;6.25;;
14019;SDS011;7085;51.428;6.796;2023-04-15T05:42:13;8.88;;;6.93;;
14019;SDS011;7085;51.428;6.796;2023-04-15T05:44:41;10.17;;;6.63;;
14019;SDS011;7085;51.428;6.796;2023-04-15T05:47:09;10.40;;;6.47;;
14019;SDS011;7085;51.428;6.796;2023-04-15T05:49:36;9.25;;;7.00;;
14019;SDS011;7085;51.428;6.796;2023-04-15T05:52:03;9.80;;;6.70;;
14019;SDS011;7085;51.428;6.796;2023-04-15T05:54:31;11.90;;;7.22;;
14019;SDS011;7085;51.428;6.796;2023-04-15T05:56:58;8.77;;;6.45;;
14019;SDS011;7085;51.428;6.796;2023-04-15T05:59:25;8.82;;;6.90;;
14019;SDS011;7085;51.428;6.796;2023-04-15T06:01:53;11.38;;;6.50;;
14019;SDS011;7085;51.428;6.796;2023-04-15T06:04:20;10.60;;;7.15;;
14019;SDS011;7085;51.428;6.796;2023-04-15T06:06:48;8.82;;;6.80;;
14019;SDS011;7085;51.428;6.796;2023-04-15T06:09:15;7.55;;;6.65;;
14019;SDS011;7085;51.428;6.796;2023-04-15T06:11:43;9.25;;;6.95;;
14019;SDS011;7085;51.428;6.796;2023-04-15T06:14:10;7.43;;;6.43;;
14019;SDS011;7085;51.428;6.796;2023-04-15T06:16:37;10.32;;;7.05;;
14019;SDS011;7085;51.428;6.796;2023-04-15T06:19:07;10.73;;;7.22;;
14019;SDS011;7085;51.428;6.796;2023-04-15T06:21:34;17.35;;;7.28;;
14019;SDS011;7085;51.428;6.796;2023-04-15T06:24:01;9.00;;;7.60;;
14019;SDS011;7085;51.428;6.796;2023-04-15T06:26:28;10.25;;;7.43;;
14019;SDS011;7085;51.428;6.796;2023-04-15T06:28:57;10.52;;;7.47;;
14019;SDS011;7085;51.428;6.796;2023-04-15T06:31:25;11.02;;;7.57;;
14019;SDS011;7085;51.428;6.796;2023-04-15T06:33:52;9.48;;;7.22;;
14019;SDS011;7085;51.428;6.796;2023-04-15T06:36:19;13.13;;;8.10;;
14019;SDS011;7085;51.428;6.796;2023-04-15T06:38:46;10.32;;;7.55;;
14019;SDS011;7085;51.428;6.796;2023-04-15T06:41:13;7.47;;;6.68;;
14019;SDS011;7085;51.428;6.796;2023-04-15T06:43:40;10.57;;;7.70;;
14019;SDS011;7085;51.428;6.796;2023-04-15T06:46:09;9.00;;;7.75;;
14019;SDS011;7085;51.428;6.796;2023-04-15T06:48:36;16.27;;;7.93;;
14019;SDS011;7085;51.428;6.796;2023-04-15T06:51:03;8.77;;;7.43;;
14019;SDS011;7085;51.428;6.796;2023-04-15T06:53:30;9.73;;;6.32;;
14019;SDS011;7085;51.428;6.796;2023-04-15T06:55:57;8.65;;;6.60;;
14019;SDS011;7085;51.428;6.796;2023-04-15T06:58:25;10.40;;;7.72;;
14019;SDS011;7085;51.428;6.796;2023-04-15T07:00:52;10.63;;;7.15;;
14019;SDS011;7085;51.428;6.796;2023-04-15T07:03:21;11.15;;;7.57;;
14019;SDS011;7085;51.428;6.796;2023-04-15T07:05:48;10.10;;;7.50;;
14019;SDS011;7085;51.428;6.796;2023-04-15T07:08:15;9.52;;;6.85;;
14019;SDS011;7085;51.428;6.796;2023-04-15T07:10:42;10.45;;;6.93;;
14019;SDS011;7085;51.428;6.796;2023-04-15T07:13:09;10.95;;;7.55;;
14019;SDS011;7085;51.428;6.796;2023-04-15T07:15:36;11.80;;;7.13;;
14019;SDS011;7085;51.428;6.796;2023-04-15T07:18:03;7.57;;;6.03;;
14019;SDS011;7085;51.428;6.796;2023-04-15T07:20:32;7.47;;;6.35;;
14019;SDS011;7085;51.428;6.796;2023-04-15T07:22:59;7.57;;;6.10;;
14019;SDS011;7085;51.428;6.796;2023-04-15T07:25:26;6.90;;;5.47;;
14019;SDS011;7085;51.428;6.796;2023-04-15T07:27:53;7.60;;;5.13;;
14019;SDS011;7085;51.428;6.796;2023-04-15T07:30:21;5.55;;;4.53;;
14019;SDS011;7085;51.428;6.796;2023-04-15T07:32:48;6.38;;;4.90;;
14019;SDS011;7085;51.428;6.796;2023-04-15T07:35:15;7.50;;;5.80;;
14019;SDS011;7085;51.428;6.796;2023-04-15T07:37:46;5.55;;;4.88;;
14019;SDS011;7085;51.428;6.796;2023-04-15T07:40:13;6.40;;;4.95;;
14019;SDS011;7085;51.428;6.796;2023-04-15T07:42:41;5.65;;;5.03;;
14019;SDS011;7085;51.428;6.796;2023-04-15T07:45:08;6.30;;;4.60;;
14019;SDS011;7085;51.428;6.796;2023-04-15T07:47:35;5.68;;;4.55;;
14019;SDS011;7085;51.428;6.796;2023-04-15T07:50:02;5.88;;;4.35;;
14019;SDS011;7085;51.428;6.796;2023-04-15T07:52:30;5.20;;;4.38;;
14019;SDS011;7085;51.428;6.796;2023-04-15T07:55:04;5.70;;;4.53;;
14019;SDS011;7085;51.428;6.796;2023-04-15T07:57:32;6.55;;;4.95;;
14019;SDS011;7085;51.428;6.796;2023-04-15T07:59:59;6.82;;;5.05;;
14019;SDS011;7085;51.428;6.796;2023-04-15T08:02:26;4.85;;;3.97;;
14019;SDS011;7085;51.428;6.796;2023-04-15T08:04:53;5.43;;;4.25;;
14019;SDS011;7085;51.428;6.796;2023-04-15T08:07:21;5.93;;;4.53;;
14019;SDS011;7085;51.428;6.796;2023-04-15T08:09:49;5.15;;;4.03;;
14019;SDS011;7085;51.428;6.796;2023-04-15T08:12:17;4.93;;;3.63;;
14019;SDS011;7085;51.428;6.796;2023-04-15T08:14:44;4.13;;;3.53;;
14019;SDS011;7085;51.428;6.796;2023-04-15T08:17:12;5.28;;;3.22;;
14019;SDS011;7085;51.428;6.796;2023-04-15T08:19:39;4.35;;;3.10;;
14019;SDS011;7085;51.428;6.796;2023-04-15T08:22:06;3.13;;;2.67;;
14019;SDS011;7085;51.428;6.796;2023-04-15T08:24:33;2.63;;;2.33;;
14019;SDS011;7085;51.428;6.796;2023-04-15T08:27:00;4.35;;;2.70;;
14019;SDS011;7085;51.428;6.796;2023-04-15T08:29:30;3.83;;;2.55;;
14019;SDS011;7085;51.428;6.796;2023-04-15T08:31:57;3.92;;;2.58;;
14019;SDS011;7085;51.428;6.796;2023-04-15T08:34:25;3.30;;;3.00;;
14019;SDS011;7085;51.428;6.796;2023-04-15T08:36:52;3.40;;;2.92;;
14019;SDS011;7085;51.428;6.796;2023-04-15T08:39:19;3.47;;;2.92;;
14019;SDS011;7085;51.428;6.796;2023-04-15T08:41:47;3.25;;;2.92;;
14019;SDS011;7085;51.428;6.796;2023-04-15T08:44:14;2.90;;;2.70;;
14019;SDS011;7085;51.428;6.796;2023-04-15T08:46:42;4.78;;;2.70;;
14019;SDS011;7085;51.428;6.796;2023-04-15T08:49:10;2.30;;;2.10;;
14019;SDS011;7085;51.428;6.796;2023-04-15T08:51:37;2.42;;;2.10;;
14019;SDS011;7085;51.428;6.796;2023-04-15T08:54:05;2.47;;;2.22;;
14019;SDS011;7085;51.428;6.796;2023-04-15T08:56:32;2.60;;;2.08;;
14019;SDS011;7085;51.428;6.796;2023-04-15T08:59:01;3.70;;;2.00;;
14019;SDS011;7085;51.428;6.796;2023-04-15T09:01:29;2.33;;;1.88;;
14019;SDS011;7085;51.428;6.796;2023-04-15T09:03:59;3.70;;;2.03;;
14019;SDS011;7085;51.428;6.796;2023-04-15T09:06:30;2.70;;;2.28;;
14019;SDS011;7085;51.428;6.796;2023-04-15T09:08:57;2.38;;;2.17;;
14019;SDS011;7085;51.428;6.796;2023-04-15T09:11:24;4.80;;;2.30;;
14019;SDS011;7085;51.428;6.796;2023-04-15T09:13:51;2.60;;;2.40;;
14019;SDS011;7085;51.428;6.796;2023-04-15T09:16:19;2.75;;;2.47;;
14019;SDS011;7085;51.428;6.796;2023-04-15T09:18:46;2.70;;;2.50;;
14019;SDS011;7085;51.428;6.796;2023-04-15T09:21:14;2.22;;;2.03;;
14019;SDS011;7085;51.428;6.796;2023-04-15T09:23:52;2.55;;;2.33;;
14019;SDS011;7085;51.428;6.796;2023-04-15T09:26:28;3.40;;;2.55;;
14019;SDS011;7085;51.428;6.796;2023-04-15T09:28:58;3.53;;;2.85;;
14019;SDS011;7085;51.428;6.796;2023-04-15T09:31:28;2.88;;;2.65;;
14019;SDS011;7085;51.428;6.796;2023-04-15T09:33:55;2.80;;;2.53;;
14019;SDS011;7085;51.428;6.796;2023-04-15T09:36:24;3.28;;;2.63;;
14019;SDS011;7085;51.428;6.796;2023-04-15T09:38:53;3.28;;;2.58;;
14019;SDS011;7085;51.428;6.796;2023-04-15T09:41:21;3.60;;;3.00;;
14019;SDS011;7085;51.428;6.796;2023-04-15T09:43:48;2.97;;;2.67;;
14019;SDS011;7085;51.428;6.796;2023-04-15T09:46:15;2.80;;;2.50;;
14019;SDS011;7085;51.428;6.796;2023-04-15T09:48:43;2.45;;;2.25;;
14019;SDS011;7085;51.428;6.796;2023-04-15T09:51:10;2.35;;;2.15;;
14019;SDS011;7085;51.428;6.796;2023-04-15T09:53:38;2.60;;;2.20;;
14019;SDS011;7085;51.428;6.796;2023-04-15T09:56:05;2.38;;;2.17;;
14019;SDS011;7085;51.428;6.796;2023-04-15T09:58:34;2.58;;;1.92;;
14019;SDS011;7085;51.428;6.796;2023-04-15T10:01:03;3.05;;;2.05;;
14019;SDS011;7085;51.428;6.796;2023-04-15T10:03:32;3.67;;;2.83;;
14019;SDS011;7085;51.428;6.796;2023-04-15T10:06:01;3.20;;;2.92;;
14019;SDS011;7085;51.428;6.796;2023-04-15T10:08:29;3.30;;;2.88;;
14019;SDS011;7085;51.428;6.796;2023-04-15T10:10:59;4.57;;;3.00;;
14019;SDS011;7085;51.428;6.796;2023-04-15T10:13:28;4.43;;;3.10;;
14019;SDS011;7085;51.428;6.796;2023-04-15T10:15:57;3.55;;;2.67;;
14019;SDS011;7085;51.428;6.796;2023-04-15T10:18:25;3.45;;;2.88;;
14019;SDS011;7085;51.428;6.796;2023-04-15T10:20:52;4.60;;;2.90;;
14019;SDS011;7085;51.428;6.796;2023-04-15T10:23:21;3.65;;;3.35;;
14019;SDS011;7085;51.428;6.796;2023-04-15T10:25:48;3.78;;;3.30;;
14019;SDS011;7085;51.428;6.796;2023-04-15T10:28:18;3.85;;;2.80;;
14019;SDS011;7085;51.428;6.796;2023-04-15T10:30:46;3.38;;;2.90;;
14019;SDS011;7085;51.428;6.796;2023-04-15T10:33:14;2.85;;;2.65;;
14019;SDS011;7085;51.428;6.796;2023-04-15T10:35:42;2.80;;;2.60;;
14019;SDS011;7085;51.428;6.796;2023-04-15T10:41:10;5.03;;;3.20;;
14019;SDS011;7085;51.428;6.796;2023-04-15T10:43:39;4.68;;;2.90;;
14019;SDS011;7085;51.428;6.796;2023-04-15T10:46:06;3.53;;;3.13;;
14019;SDS011;7085;51.428;6.796;2023-04-15T10:48:33;5.10;;;3.17;;
14019;SDS011;7085;51.428;6.796;2023-04-15T10:51:00;4.03;;;3.40;;
14019;SDS011;7085;51.428;6.796;2023-04-15T10:53:30;4.88;;;3.60;;
14019;SDS011;7085;51.428;6.796;2023-04-15T10:55:57;3.38;;;3.08;;
14019;SDS011;7085;51.428;6.796;2023-04-15T10:58:24;3.10;;;2.80;;
14019;SDS011;7085;51.428;6.796;2023-04-15T11:00:53;3.45;;;2.90;;
14019;SDS011;7085;51.428;6.796;2023-04-15T11:03:33;3.53;;;3.00;;
14019;SDS011;7085;51.428;6.796;2023-04-15T11:06:02;4.20;;;3.30;;
14019;SDS011;7085;51.428;6.796;2023-04-15T11:11:14;2.90;;;2.55;;
14019;SDS011;7085;51.428;6.796;2023-04-15T11:13:46;2.97;;;2.40;;
14019;SDS011;7085;51.428;6.796;2023-04-15T11:16:15;2.70;;;2.50;;
14019;SDS011;7085;51.428;6.796;2023-04-15T11:18:42;2.80;;;2.60;;
14019;SDS011;7085;51.428;6.796;2023-04-15T11:21:18;3.40;;;2.72;;
14019;SDS011;7085;51.428;6.796;2023-04-15T11:23:50;3.83;;;2.78;;
14019;SDS011;7085;51.428;6.796;2023-04-15T11:26:17;3.08;;;2.45;;
14019;SDS011;7085;51.428;6.796;2023-04-15T11:28:44;2.40;;;2.13;;
14019;SDS011;7085;51.428;6.796;2023-04-15T11:31:12;2.83;;;2.53;;
14019;SDS011;7085;51.428;6.796;2023-04-15T11:33:52;2.90;;;2.60;;
14019;SDS011;7085;51.428;6.796;2023-04-15T11:36:20;3.20;;;2.45;;
14019;SDS011;7085;51.428;6.796;2023-04-15T11:38:50;4.63;;;2.60;;
14019;SDS011;7085;51.428;6.796;2023-04-15T11:41:19;3.20;;;2.63;;
14019;SDS011;7085;51.428;6.796;2023-04-15T11:43:46;2.92;;;2.45;;
14019;SDS011;7085;51.428;6.796;2023-04-15T11:46:13;3.30;;;2.38;;
14019;SDS011;7085;51.428;6.796;2023-04-15T11:48:41;5.15;;;2.90;;
14019;SDS011;7085;51.428;6.796;2023-04-15T11:51:09;3.40;;;2.70;;
14019;SDS011;7085;51.428;6.796;2023-04-15T11:53:37;4.78;;;3.33;;
14019;SDS011;7085;51.428;6.796;2023-04-15T11:56:05;3.55;;;3.00;;
14019;SDS011;7085;51.428;6.796;2023-04-15T11:58:33;2.70;;;2.38;;
14019;SDS011;7085;51.428;6.796;2023-04-15T12:01:01;2.88;;;2.58;;
14019;SDS011;7085;51.428;6.796;2023-04-15T12:03:29;2.58;;;2.15;;
14019;SDS011;7085;51.428;6.796;2023-04-15T12:06:11;2.42;;;2.22;;
14019;SDS011;7085;51.428;6.796;2023-04-15T12:08:55;4.45;;;2.30;;
14019;SDS011;7085;51.428;6.796;2023-04-15T12:11:26;2.13;;;1.92;;
14019;SDS011;7085;51.428;6.796;2023-04-15T12:13:55;2.33;;;2.03;;
14019;SDS011;7085;51.428;6.796;2023-04-15T12:16:22;2.42;;;2.22;;
14019;SDS011;7085;51.428;6.796;2023-04-15T12:18:50;2.42;;;2.10;;
14019;SDS011;7085;51.428;6.796;2023-04-15T12:21:19;4.00;;;3.03;;
14019;SDS011;7085;51.428;6.796;2023-04-15T12:23:49;2.92;;;2.63;;
14019;SDS011;7085;51.428;6.796;2023-04-15T12:26:16;3.03;;;2.55;;
14019;SDS011;7085;51.428;6.796;2023-04-15T12:28:44;3.00;;;2.17;;
14019;SDS011;7085;51.428;6.796;2023-04-15T12:31:11;3.53;;;2.78;;
14019;SDS011;7085;51.428;6.796;2023-04-15T12:33:38;3.03;;;2.45;;
14019;SDS011;7085;51.428;6.796;2023-04-15T12:36:05;2.90;;;1.92;;
14019;SDS011;7085;51.428;6.796;2023-04-15T12:38:33;2.25;;;1.75;;
14019;SDS011;7085;51.428;6.796;2023-04-15T12:41:00;3.83;;;1.80;;
14019;SDS011;7085;51.428;6.796;2023-04-15T12:43:27;2.08;;;1.85;;
14019;SDS011;7085;51.428;6.796;2023-04-15T12:45:54;2.83;;;2.47;;
14019;SDS011;7085;51.428;6.796;2023-04-15T12:48:22;2.53;;;2.30;;
14019;SDS011;7085;51.428;6.796;2023-04-15T12:50:49;3.15;;;2.40;;
14019;SDS011;7085;51.428;6.796;2023-04-15T12:53:16;3.30;;;2.35;;
14019;SDS011;7085;51.428;6.796;2023-04-15T12:55:45;3.50;;;2.20;;
14019;SDS011;7085;51.428;6.796;2023-04-15T12:58:12;2.58;;;2.08;;
14019;SDS011;7085;51.428;6.796;2023-04-15T13:00:39;2.83;;;2.22;;
14019;SDS011;7085;51.428;6.796;2023-04-15T13:03:06;2.20;;;2.00;;
14019;SDS011;7085;51.428;6.796;2023-04-15T13:05:33;2.50;;;2.00;;
14019;SDS011;7085;51.428;6.796;2023-04-15T13:08:03;1.85;;;1.75;;
14019;SDS011;7085;51.428;6.796;2023-04-15T13:10:30;3.42;;;2.53;;
14019;SDS011;7085;51.428;6.796;2023-04-15T13:12:59;4.03;;;2.20;;
14019;SDS011;7085;51.428;6.796;2023-04-15T13:15:26;2.42;;;2.22;;
14019;SDS011;7085;51.428;6.796;2023-04-15T13:17:53;2.70;;;2.50;;
14019;SDS011;7085;51.428;6.796;2023-04-15T13:20:20;4.53;;;2.55;;
14019;SDS011;7085;51.428;6.796;2023-04-15T13:22:47;2.90;;;2.60;;
14019;SDS011;7085;51.428;6.796;2023-04-15T13:25:14;4.30;;;2.80;;
14019;SDS011;7085;51.428;6.796;2023-04-15T13:27:41;3.03;;;2.35;;
14019;SDS011;7085;51.428;6.796;2023-04-15T13:30:10;3.35;;;2.35;;
14019;SDS011;7085;51.428;6.796;2023-04-15T13:32:37;2.67;;;2.40;;
14019;SDS011;7085;51.428;6.796;2023-04-15T13:35:04;2.20;;;2.10;;
14019;SDS011;7085;51.428;6.796;2023-04-15T13:37:31;3.63;;;2.22;;
14019;SDS011;7085;51.428;6.796;2023-04-15T13:39:58;1.95;;;1.70;;
14019;SDS011;7085;51.428;6.796;2023-04-15T13:42:25;2.13;;;1.77;;
14019;SDS011;7085;51.428;6.796;2023-04-15T13:44:53;1.92;;;1.80;;
14019;SDS011;7085;51.428;6.796;2023-04-15T13:47:21;2.00;;;1.90;;
14019;SDS011;7085;51.428;6.796;2023-04-15T13:49:48;1.98;;;1.75;;
14019;SDS011;7085;51.428;6.796;2023-04-15T13:52:16;3.75;;;2.08;;
14019;SDS011;7085;51.428;6.796;2023-04-15T13:54:43;1.60;;;1.50;;
14019;SDS011;7085;51.428;6.796;2023-04-15T13:57:11;2.85;;;1.80;;
14019;SDS011;7085;51.428;6.796;2023-04-15T13:59:38;2.75;;;1.95;;
14019;SDS011;7085;51.428;6.796;2023-04-15T14:02:05;2.83;;;2.05;;
14019;SDS011;7085;51.428;6.796;2023-04-15T14:04:34;3.10;;;2.03;;
14019;SDS011;7085;51.428;6.796;2023-04-15T14:07:01;3.70;;;2.25;;
14019;SDS011;7085;51.428;6.796;2023-04-15T14:09:28;5.00;;;2.00;;
14019;SDS011;7085;51.428;6.796;2023-04-15T14:11:55;2.05;;;1.88;;
14019;SDS011;7085;51.428;6.796;2023-04-15T14:14:23;1.98;;;1.75;;
14019;SDS011;7085;51.428;6.796;2023-04-15T14:16:50;1.88;;;1.77;;
14019;SDS011;7085;51.428;6.796;2023-04-15T14:19:17;3.10;;;2.20;;
14019;SDS011;7085;51.428;6.796;2023-04-15T14:21:45;2.03;;;1.88;;
14019;SDS011;7085;51.428;6.796;2023-04-15T14:24:12;2.78;;;1.73;;
14019;SDS011;7085;51.428;6.796;2023-04-15T14:26:39;2.33;;;1.73;;
14019;SDS011;7085;51.428;6.796;2023-04-15T14:29:08;3.58;;;1.60;;
14019;SDS011;7085;51.428;6.796;2023-04-15T14:31:36;2.90;;;1.70;;
14019;SDS011;7085;51.428;6.796;2023-04-15T14:34:03;2.67;;;1.63;;
14019;SDS011;7085;51.428;6.796;2023-04-15T14:36:30;1.52;;;1.42;;
14019;SDS011;7085;51.428;6.796;2023-04-15T14:38:59;1.88;;;1.30;;
14019;SDS011;7085;51.428;6.796;2023-04-15T14:41:26;1.98;;;1.70;;
14019;SDS011;7085;51.428;6.796;2023-04-15T14:43:53;3.00;;;2.00;;
14019;SDS011;7085;51.428;6.796;2023-04-15T14:46:20;1.95;;;1.67;;
14019;SDS011;7085;51.428;6.796;2023-04-15T14:48:47;2.90;;;1.80;;
14019;SDS011;7085;51.428;6.796;2023-04-15T14:51:15;1.88;;;1.77;;
14019;SDS011;7085;51.428;6.796;2023-04-15T14:53:42;1.98;;;1.85;;
14019;SDS011;7085;51.428;6.796;2023-04-15T14:56:11;4.15;;;1.88;;
14019;SDS011;7085;51.428;6.796;2023-04-15T14:58:38;4.20;;;1.90;;
14019;SDS011;7085;51.428;6.796;2023-04-15T15:01:05;1.70;;;1.60;;
14019;SDS011;7085;51.428;6.796;2023-04-15T15:03:32;1.60;;;1.50;;
14019;SDS011;7085;51.428;6.796;2023-04-15T15:05:59;2.17;;;1.80;;
14019;SDS011;7085;51.428;6.796;2023-04-15T15:08:26;2.22;;;1.67;;
14019;SDS011;7085;51.428;6.796;2023-04-15T15:10:53;1.73;;;1.63;;
14019;SDS011;7085;51.428;6.796;2023-04-15T15:13:22;6.57;;;2.10;;
14019;SDS011;7085;51.428;6.796;2023-04-15T15:15:49;2.63;;;1.77;;
14019;SDS011;7085;51.428;6.796;2023-04-15T15:18:16;2.90;;;2.13;;
14019;SDS011;7085;51.428;6.796;2023-04-15T15:20:43;1.80;;;1.70;;
14019;SDS011;7085;51.428;6.796;2023-04-15T15:23:10;1.85;;;1.75;;
14019;SDS011;7085;51.428;6.796;2023-04-15T15:25:37;2.15;;;1.70;;
14019;SDS011;7085;51.428;6.796;2023-04-15T15:28:05;2.33;;;1.60;;
14019;SDS011;7085;51.428;6.796;2023-04-15T15:30:33;2.22;;;1.90;;
14019;SDS011;7085;51.428;6.796;2023-04-15T15:33:00;2.90;;;1.80;;
14019;SDS011;7085;51.428;6.796;2023-04-15T15:35:27;1.77;;;1.67;;
14019;SDS011;7085;51.428;6.796;2023-04-15T15:37:55;2.05;;;1.90;;
14019;SDS011;7085;51.428;6.796;2023-04-15T15:40:22;2.13;;;1.92;;
14019;SDS011;7085;51.428;6.796;2023-04-15T15:42:49;2.47;;;2.05;;
14019;SDS011;7085;51.428;6.796;2023-04-15T15:45:16;3.40;;;1.75;;
14019;SDS011;7085;51.428;6.796;2023-04-15T15:47:45;2.15;;;1.92;;
14019;SDS011;7085;51.428;6.796;2023-04-15T15:50:12;3.90;;;1.95;;
14019;SDS011;7085;51.428;6.796;2023-04-15T15:52:39;3.40;;;1.60;;
14019;SDS011;7085;51.428;6.796;2023-04-15T15:55:06;3.35;;;2.30;;
14019;SDS011;7085;51.428;6.796;2023-04-15T15:57:34;2.67;;;2.15;;
14019;SDS011;7085;51.428;6.796;2023-04-15T16:00:01;2.72;;;1.70;;
14019;SDS011;7085;51.428;6.796;2023-04-15T16:02:28;2.35;;;1.75;;
14019;SDS011;7085;51.428;6.796;2023-04-15T16:04:57;2.05;;;1.92;;
14019;SDS011;7085;51.428;6.796;2023-04-15T16:07:24;2.83;;;1.80;;
14019;SDS011;7085;51.428;6.796;2023-04-15T16:09:51;5.28;;;2.25;;
14019;SDS011;7085;51.428;6.796;2023-04-15T16:12:19;2.85;;;2.13;;
14019;SDS011;7085;51.428;6.796;2023-04-15T16:14:46;4.30;;;2.10;;
14019;SDS011;7085;51.428;6.796;2023-04-15T16:17:13;3.22;;;1.75;;
14019;SDS011;7085;51.428;6.796;2023-04-15T16:19:40;2.00;;;1.90;;
14019;SDS011;7085;51.428;6.796;2023-04-15T16:22:08;1.98;;;1.85;;
14019;SDS011;7085;51.428;6.796;2023-04-15T16:24:35;3.58;;;1.80;;
14019;SDS011;7085;51.428;6.796;2023-04-15T16:27:03;2.13;;;1.92;;
14019;SDS011;7085;51.428;6.796;2023-04-15T16:29:30;3.33;;;2.38;;
14019;SDS011;7085;51.428;6.796;2023-04-15T16:31:58;3.28;;;2.03;;
14019;SDS011;7085;51.428;6.796;2023-04-15T16:34:25;3.00;;;2.00;;
14019;SDS011;7085;51.428;6.796;2023-04-15T16:36:53;7.80;;;2.15;;
14019;SDS011;7085;51.428;6.796;2023-04-15T16:39:21;2.60;;;2.03;;
14019;SDS011;7085;51.428;6.796;2023-04-15T16:41:48;3.35;;;1.95;;
14019;SDS011;7085;51.428;6.796;2023-04-15T16:44:15;2.50;;;2.30;;
14019;SDS011;7085;51.428;6.796;2023-04-15T16:46:42;4.22;;;2.05;;
14019;SDS011;7085;51.428;6.796;2023-04-15T16:49:09;2.97;;;2.50;;
14019;SDS011;7085;51.428;6.796;2023-04-15T16:51:36;3.22;;;2.38;;
14019;SDS011;7085;51.428;6.796;2023-04-15T16:54:04;3.63;;;2.42;;
14019;SDS011;7085;51.428;6.796;2023-04-15T16:56:32;4.68;;;2.25;;
14019;SDS011;7085;51.428;6.796;2023-04-15T16:58:59;2.83;;;2.50;;
14019;SDS011;7085;51.428;6.796;2023-04-15T17:01:27;4.82;;;2.65;;
14019;SDS011;7085;51.428;6.796;2023-04-15T17:03:54;2.50;;;2.30;;
14019;SDS011;7085;51.428;6.796;2023-04-15T17:06:21;3.15;;;2.22;;
14019;SDS011;7085;51.428;6.796;2023-04-15T17:08:48;2.55;;;2.28;;
14019;SDS011;7085;51.428;6.796;2023-04-15T17:11:15;5.32;;;2.67;;
14019;SDS011;7085;51.428;6.796;2023-04-15T17:13:43;5.00;;;3.03;;
14019;SDS011;7085;51.428;6.796;2023-04-15T17:16:10;2.85;;;2.53;;
14019;SDS011;7085;51.428;6.796;2023-04-15T17:18:38;4.97;;;2.75;;
14019;SDS011;7085;51.428;6.796;2023-04-15T17:21:05;5.95;;;2.70;;
14019;SDS011;7085;51.428;6.796;2023-04-15T17:23:32;7.20;;;2.58;;
14019;SDS011;7085;51.428;6.796;2023-04-15T17:25:59;4.70;;;2.50;;
14019;SDS011;7085;51.428;6.796;2023-04-15T17:28:27;6.60;;;3.28;;
14019;SDS011;7085;51.428;6.796;2023-04-15T17:30:55;4.60;;;2.80;;
14019;SDS011;7085;51.428;6.796;2023-04-15T17:33:23;3.53;;;2.60;;
14019;SDS011;7085;51.428;6.796;2023-04-15T17:35:50;7.93;;;3.05;;
14019;SDS011;7085;51.428;6.796;2023-04-15T17:38:17;5.43;;;2.88;;
14019;SDS011;7085;51.428;6.796;2023-04-15T17:40:44;5.68;;;2.70;;
14019;SDS011;7085;51.428;6.796;2023-04-15T17:43:11;5.88;;;2.03;;
14019;SDS011;7085;51.428;6.796;2023-04-15T17:45:38;4.28;;;2.40;;
14019;SDS011;7085;51.428;6.796;2023-04-15T17:48:06;7.63;;;2.65;;
14019;SDS011;7085;51.428;6.796;2023-04-15T17:50:33;5.20;;;2.10;;
14019;SDS011;7085;51.428;6.796;2023-04-15T17:53:02;4.18;;;2.13;;
14019;SDS011;7085;51.428;6.796;2023-04-15T17:55:30;6.68;;;2.50;;
14019;SDS011;7085;51.428;6.796;2023-04-15T17:57:57;10.50;;;2.42;;
14019;SDS011;7085;51.428;6.796;2023-04-15T18:00:24;4.00;;;2.67;;
14019;SDS011;7085;51.428;6.796;2023-04-15T18:02:51;6.13;;;2.83;;
14019;SDS011;7085;51.428;6.796;2023-04-15T18:05:19;5.30;;;2.50;;
14019;SDS011;7085;51.428;6.796;2023-04-15T18:07:47;4.88;;;2.63;;
14019;SDS011;7085;51.428;6.796;2023-04-15T18:10:16;2.75;;;2.45;;